createdAt,value
2023-05-17T00:03:10.657Z,19.3
2023-05-17T00:08:32.306Z,19.3
2023-05-17T00:13:39.985Z,19.3
2023-05-17T00:19:16.800Z,19.3
2023-05-17T00:24:37.425Z,19.3
2023-05-17T00:30:31.098Z,19.3
2023-05-17T00:36:07.402Z,19.3
2023-05-17T00:41:44.161Z,19.3
2023-05-17T00:47:37.735Z,19.3
2023-05-17T00:52:58.665Z,19.3
2023-05-17T00:58:35.811Z,19.3
2023-05-17T01:04:30.479Z,19.3
2023-05-17T01:10:21.830Z,19.3
2023-05-17T01:15:58.140Z,19.3
2023-05-17T01:21:37.265Z,19.3
2023-05-17T01:27:28.022Z,19.3
2023-05-17T01:33:20.349Z,19.3
2023-05-17T01:38:27.884Z,19.3
2023-05-17T01:44:19.335Z,19.3
2023-05-17T01:50:11.457Z,19.3
2023-05-17T01:56:04.566Z,19.3
2023-05-17T02:01:25.182Z,19.3
2023-05-17T02:07:02.794Z,19.3
2023-05-17T02:12:25.654Z,19.3
2023-05-17T02:17:46.202Z,19.3
2023-05-17T02:23:08.116Z,19.3
2023-05-17T02:28:46.154Z,19.3
2023-05-17T02:34:22.463Z,19.3
2023-05-17T02:39:58.847Z,19.4
2023-05-17T02:45:36.754Z,19.5
2023-05-17T02:51:13.130Z,19.5
2023-05-17T02:56:50.623Z,19.5
2023-05-17T03:02:28.939Z,19.5
2023-05-17T03:08:06.457Z,19.5
2023-05-17T03:13:42.249Z,19.5
2023-05-17T03:19:21.453Z,19.5
2023-05-17T03:25:13.211Z,19.5
2023-05-17T03:30:50.270Z,19.5
2023-05-17T03:36:13.570Z,19.5
2023-05-17T03:41:34.003Z,19.5
2023-05-17T03:46:54.562Z,19.5
2023-05-17T03:52:03.018Z,19.5
2023-05-17T03:57:24.703Z,19.5
2023-05-17T04:03:00.868Z,19.5
2023-05-17T04:08:41.672Z,19.6
2023-05-17T04:14:17.421Z,19.6
2023-05-17T04:19:54.895Z,19.6
2023-05-17T04:25:32.205Z,19.6
2023-05-17T04:31:08.166Z,19.6
2023-05-17T04:36:45.698Z,19.6
2023-05-17T04:42:22.706Z,19.5
2023-05-17T04:47:59.350Z,19.5
2023-05-17T04:53:36.516Z,19.5
2023-05-17T04:59:14.354Z,19.4
2023-05-17T05:04:50.455Z,19.4
2023-05-17T05:10:27.193Z,19.4
2023-05-17T05:16:06.970Z,19.4
2023-05-17T05:21:44.356Z,19.4
2023-05-17T05:27:07.018Z,19.4
2023-05-17T05:32:45.220Z,19.4
2023-05-17T05:38:40.356Z,19.4
2023-05-17T05:44:16.271Z,19.3
2023-05-17T05:50:10.020Z,23.3
2023-05-17T05:56:16.868Z,23.9
2023-05-17T06:01:55.684Z,24.5
2023-05-17T06:07:27.755Z,25.1
2023-05-17T06:12:33.083Z,25.7
2023-05-17T06:18:25.238Z,26.1
2023-05-17T06:23:47.228Z,26.2
2023-05-17T06:29:24.097Z,27.1
2023-05-17T06:35:02.037Z,27.7
2023-05-17T06:41:06.563Z,28.1
2023-05-17T06:46:28.273Z,28.7
2023-05-17T06:52:07.315Z,29.2
2023-05-17T06:57:45.539Z,30.1
2023-05-17T07:03:07.738Z,30.7
2023-05-17T07:08:29.854Z,31.4
2023-05-17T07:14:10.626Z,32.3
2023-05-17T07:19:31.269Z,33.1
2023-05-17T07:24:52.776Z,33.8
2023-05-17T07:30:16.549Z,34.5
2023-05-17T07:35:21.983Z,35.1
2023-05-17T07:41:00.064Z,35.6
2023-05-17T07:46:22.395Z,35.7
2023-05-17T07:51:46.358Z,36
2023-05-17T07:57:08.842Z,36.5
2023-05-17T08:02:30.625Z,36.9
2023-05-17T08:07:51.745Z,37.4
2023-05-17T08:13:13.795Z,38
2023-05-17T08:19:04.021Z,38.6
2023-05-17T08:24:41.808Z,39.3
2023-05-17T08:30:04.137Z,39.6
2023-05-17T08:35:50.827Z,39.9
2023-05-17T08:40:56.580Z,40.2
2023-05-17T08:46:35.303Z,40.6
2023-05-17T08:52:00.448Z,40.8
2023-05-17T08:57:21.991Z,41
2023-05-17T09:02:56.329Z,41.4
2023-05-17T09:08:37.468Z,41.6
2023-05-17T09:13:58.510Z,41.8
2023-05-17T09:19:35.342Z,41.8
2023-05-17T09:25:24.303Z,41.8
2023-05-17T09:30:59.440Z,41.9
2023-05-17T09:36:38.586Z,41.9
2023-05-17T09:42:00.625Z,42.1
2023-05-17T09:47:37.039Z,42.4
2023-05-17T09:52:58.088Z,43
2023-05-17T09:58:34.823Z,43.3
2023-05-17T10:04:12.186Z,43.4
2023-05-17T10:09:52.280Z,43.1
2023-05-17T10:15:30.907Z,42.9
2023-05-17T10:20:53.062Z,42.6
2023-05-17T10:26:28.627Z,42.4
2023-05-17T10:31:18.934Z,42.1
2023-05-17T10:36:36.397Z,41.9
2023-05-17T10:47:33.968Z,41.3
2023-05-17T10:53:22.918Z,40.9
2023-05-17T10:58:56.320Z,40.7
2023-05-17T11:04:19.905Z,40.5
2023-05-17T11:09:33.978Z,40.3
2023-05-17T11:14:54.365Z,40.2
2023-05-17T11:20:29.838Z,40.2
2023-05-17T11:25:52.111Z,40.1
2023-05-17T11:31:05.776Z,40.1
2023-05-17T11:36:57.851Z,40.1
2023-05-17T11:42:51.461Z,40.2
2023-05-17T11:48:44.396Z,40.3
2023-05-17T11:54:33.963Z,40.4
2023-05-17T12:00:21.999Z,40.3
2023-05-17T12:05:57.812Z,40
2023-05-17T12:11:36.857Z,39.8
2023-05-17T12:17:12.772Z,39.6
2023-05-17T12:23:06.455Z,39.6
2023-05-17T12:28:58.916Z,39.6
2023-05-17T12:34:51.996Z,39.7
2023-05-17T12:40:29.874Z,39.8
2023-05-17T12:46:36.517Z,39.6
2023-05-17T12:52:12.709Z,39.4
2023-05-17T12:57:49.300Z,39.4
2023-05-17T13:03:26.702Z,39.3
2023-05-17T13:09:19.102Z,39.3
2023-05-17T13:15:10.817Z,39.4
2023-05-17T13:21:04.719Z,39.4
2023-05-17T13:26:55.381Z,39.1
2023-05-17T13:32:29.421Z,38.7
2023-05-17T13:38:06.773Z,38.4
2023-05-17T13:43:42.951Z,38.1
2023-05-17T13:49:03.876Z,37.7
2023-05-17T13:54:25.214Z,34.9
2023-05-17T14:00:02.450Z,27.4
2023-05-17T14:05:23.687Z,26.3
2023-05-17T14:11:03.768Z,25.9
2023-05-17T14:16:39.085Z,25.8
2023-05-17T14:22:00.893Z,25.7
2023-05-17T14:27:37.418Z,25.6
2023-05-17T14:32:57.966Z,25.6
2023-05-17T14:38:19.306Z,25.5
2023-05-17T14:43:47.330Z,25.4
2023-05-17T14:49:08.409Z,25.3
2023-05-17T14:54:30.365Z,25.2
2023-05-17T14:59:36.792Z,25
2023-05-17T15:05:05.969Z,24.9
2023-05-17T15:10:26.972Z,24.8
2023-05-17T15:15:48.170Z,24.6
2023-05-17T15:21:10.330Z,24.4
2023-05-17T15:27:04.075Z,23.7
2023-05-17T15:32:41.688Z,23.4
2023-05-17T15:38:18.312Z,23.1
2023-05-17T15:44:09.600Z,22.9
2023-05-17T15:49:39.148Z,22.8
2023-05-17T15:55:14.402Z,22.7
2023-05-17T16:01:06.395Z,22.6
2023-05-17T16:06:43.747Z,22.5
2023-05-17T16:12:19.443Z,22.4
2023-05-17T16:17:55.073Z,22.3
2023-05-17T16:23:47.929Z,22.2
2023-05-17T16:29:38.519Z,22.2
2023-05-17T16:35:30.258Z,22.1
2023-05-17T16:41:22.232Z,22.1
2023-05-17T16:47:12.896Z,22
2023-05-17T16:53:04.888Z,21.9
2023-05-17T16:58:57.117Z,21.9
2023-05-17T17:04:49.621Z,21.9
2023-05-17T17:10:40.926Z,21.8
2023-05-17T17:16:50.337Z,21.8
2023-05-17T17:22:29.471Z,21.8
2023-05-17T17:28:21.533Z,21.7
2023-05-17T17:34:14.164Z,21.7
2023-05-17T17:39:49.747Z,21.6
2023-05-17T17:45:25.337Z,21.6
2023-05-17T17:51:17.912Z,21.6
2023-05-17T17:56:40.575Z,21.6
2023-05-17T18:02:17.182Z,21.6
2023-05-17T18:08:09.599Z,21.5
2023-05-17T18:13:44.834Z,21.5
2023-05-17T18:19:36.759Z,21.5
2023-05-17T18:25:13.976Z,21.5
2023-05-17T18:31:02.173Z,21.4
2023-05-17T18:36:10.573Z,21.4
2023-05-17T18:41:47.645Z,21.4
2023-05-17T18:47:25.501Z,21.4
2023-05-17T18:53:01.125Z,21.4
2023-05-17T18:58:38.057Z,21.4
2023-05-17T19:03:43.584Z,21.4
2023-05-17T19:09:04.705Z,21.3
2023-05-17T19:14:42.191Z,21.4
2023-05-17T19:20:19.644Z,22.2
2023-05-17T19:25:56.789Z,23.4
2023-05-17T19:31:52.100Z,25
2023-05-17T19:36:58.201Z,26.4
2023-05-17T19:42:34.248Z,27.8
2023-05-17T19:48:12.929Z,29.1
2023-05-17T19:53:44.154Z,30.2
2023-05-17T19:59:27.792Z,31.4
2023-05-17T20:05:20.954Z,32.4
2023-05-17T20:10:57.596Z,33.3
2023-05-17T20:16:49.670Z,33.8
2023-05-17T20:22:12.310Z,34.1
2023-05-17T20:27:49.517Z,34.3
2023-05-17T20:33:27.501Z,34.4
2023-05-17T20:39:21.521Z,34.4
2023-05-17T20:45:14.817Z,34.3
2023-05-17T20:51:05.850Z,34.1
2023-05-17T20:57:09.799Z,34
2023-05-17T21:02:45.781Z,33.9
2023-05-17T21:08:37.670Z,33.3
2023-05-17T21:14:14.157Z,33.3
2023-05-17T21:19:48.934Z,32.4
2023-05-17T21:25:12.663Z,32.4
2023-05-17T21:30:51.888Z,32.3
2023-05-17T21:36:44.362Z,32.1
2023-05-17T21:42:36.163Z,32.1
2023-05-17T21:48:28.649Z,32
2023-05-17T21:54:19.444Z,31.9
2023-05-17T22:00:16.052Z,31.9
2023-05-17T22:05:53.745Z,31.9
2023-05-17T22:11:31.480Z,31.8
2023-05-17T22:17:23.245Z,31.8
2023-05-17T22:22:56.654Z,31.7
2023-05-17T22:28:47.664Z,31.6
2023-05-17T22:34:39.433Z,31.6
2023-05-17T22:40:15.363Z,31.6
2023-05-17T22:45:50.979Z,31.6
2023-05-17T22:51:42.505Z,31.5
2023-05-17T22:57:34.216Z,31.4
2023-05-17T23:02:54.588Z,31.4
2023-05-17T23:08:16.044Z,31.4
2023-05-17T23:13:39.332Z,31.4
2023-05-17T23:19:15.231Z,31.3
2023-05-17T23:24:51.838Z,31.3
2023-05-17T23:30:28.467Z,31.3
2023-05-17T23:35:49.700Z,31.2
2023-05-17T23:41:26.142Z,31.1
2023-05-17T23:47:03.444Z,31.1
2023-05-17T23:52:54.794Z,31.1
2023-05-17T23:58:31.497Z,31
